• Join FlightAware (Why Join?)
  • Login
  • US Flag 
06:06AM EDT


 

Airport Tracker/Info


-or-


 

Live Flight TrackerFlight Track Log ✈ N118RT ✈ 23-May-2013 ✈ KELP - MMTC / TRC

Flight Track Log - Related Links

Times and Time Zones

All times are in EDT time to prevent confusion due to time zone crossing. See the N118RT flight status page for this flight to view local times or setup timezone preferences in your user account.

Time Position Orientation Groundspeed Altitude Reporting Facility
EDT Latitude Longitude Course Direction KTS MPH feet Rate Location/Type
12:25PM 31.7956 -106.4019 206° Southwest 200 230 4,500  Level Albuquerque Center
12:25PM 31.7803 -106.4108 206° Southwest 210 242 5,100 2,040 Climbing Albuquerque Center
12:26PM 31.7292 -106.3536 136° Southeast 235 270 7,400 2,220 Climbing Albuquerque Center
12:27PM 31.6886 -106.2936 128° Southeast 241 277 9,800 2,220 Climbing Albuquerque Center
12:29PM 31.6464 -106.2378 132° Southeast 235 270 12,200 2,100 Climbing Albuquerque Center
12:30PM 31.6014 -106.1794 132° Southeast 240 276 14,400 1,980 Climbing Albuquerque Center
12:31PM 31.5533 -106.1181 133° Southeast 255 293 16,400 2,160 Climbing Albuquerque Center
12:32PM 31.4914 -106.0375 132° Southeast 278 320 18,900 2,220 Climbing Albuquerque Center
12:33PM 31.4389 -105.9692 132° Southeast 283 326 21,100 1,980 Climbing Albuquerque Center
12:34PM 31.3850 -105.8997 132° Southeast 287 330 23,100 1,920 Climbing Albuquerque Center
12:35PM 31.3322 -105.8319 132° Southeast 283 326 25,100 1,800 Climbing Albuquerque Center
12:36PM 31.2758 -105.7603 133° Southeast 298 343 26,900 1,380 Climbing Albuquerque Center
12:42PM 30.8400 -105.3750 133° Southeast 311 358 35,300 1,260 Climbing FlightAware
12:43PM 30.7830 -105.3540 162° South 315 362 35,800 720 Climbing FlightAware
12:43PM 30.7210 -105.3300 162° South 319 367 36,400 720 Climbing FlightAware
12:44PM 30.6700 -105.3110 162° South 323 372 36,800 540 Climbing FlightAware
12:45PM 30.6010 -105.2880 164° South 317 365 37,200 600 Climbing FlightAware
12:46PM 30.5390 -105.2890 181° South 315 362 37,700 720 Climbing FlightAware
12:46PM 30.4820 -105.2890 180° South 313 360 38,200 600 Climbing FlightAware
12:47PM 30.4200 -105.2900 181° South 313 360 38,600 420 Climbing FlightAware
12:48PM 30.3590 -105.2920 182° South 317 365 38,800 300 Climbing FlightAware
12:48PM 30.3030 -105.2920 180° South 322 371 39,000 120 Climbing FlightAware
12:49PM 30.2440 -105.2930 181° South 324 373 39,000  Level FlightAware
12:49PM 30.2110 -105.2710 150° Southeast 349 402 39,000  Level FlightAware
12:50PM 30.1480 -105.2450 160° South 356 410 39,000  Level FlightAware
12:51PM 30.0770 -105.2150 160° South 361 415 39,000  Level FlightAware
12:51PM 30.0240 -105.1930 160° South 365 420 39,000  Level FlightAware
12:52PM 29.9670 -105.1680 159° South 365 420 39,000  Level FlightAware
12:53PM 29.9130 -105.1440 159° South 365 420 39,000  Level FlightAware
12:53PM 29.8460 -105.1150 159° South 365 420 39,000  Level FlightAware
12:54PM 29.7510 -105.0790 162° South 363 418 39,000  Level FlightAware
12:55PM 29.6810 -105.0500 160° South 361 415 39,000  Level FlightAware
12:56PM 29.6190 -105.0240 160° South 360 414 39,000  Level FlightAware
12:56PM 29.5510 -104.9960 160° South 358 412 39,000  Level FlightAware
12:57PM 29.4930 -104.9720 160° South 358 412 39,000  Level FlightAware
12:58PM 29.4400 -104.9500 160° South 358 412 39,000  Level FlightAware
12:58PM 29.3880 -104.9280 160° South 358 412 39,000  Level FlightAware
12:59PM 29.3210 -104.9000 160° South 358 412 39,000  Level FlightAware
01:00PM 29.2690 -104.8780 160° South 358 412 39,000  Level FlightAware
01:00PM 29.1590 -104.8340 161° South 353 406 39,000  Level FlightAware
01:01PM 29.0910 -104.8060 160° South 353 406 39,000  Level FlightAware
01:02PM 29.0300 -104.7810 160° South 353 406 39,000  Level FlightAware
01:03PM 28.9590 -104.7520 160° South 353 406 39,000  Level FlightAware
01:03PM 28.9070 -104.7300 160° South 352 405 39,000  Level FlightAware
01:04PM 28.8360 -104.7010 160° South 353 406 39,000  Level FlightAware
01:05PM 28.7670 -104.6730 160° South 353 406 39,000  Level FlightAware
01:05PM 28.7090 -104.6490 160° South 351 404 39,000  Level FlightAware
01:06PM 28.6450 -104.6240 161° South 353 406 39,000  Level FlightAware
01:07PM 28.5780 -104.5960 160° South 353 406 39,000  Level FlightAware
01:07PM 28.5130 -104.5700 161° South 354 407 39,000  Level FlightAware
01:08PM 28.4450 -104.5420 160° South 354 407 39,000  Level FlightAware
01:09PM 28.3840 -104.5170 160° South 356 410 39,000  Level FlightAware
01:10PM 28.3200 -104.4920 161° South 356 410 39,000  Level FlightAware
01:10PM 28.2510 -104.4640 160° South 357 411 39,000  Level FlightAware
01:11PM 28.1870 -104.4380 160° South 358 412 39,000  Level FlightAware
01:12PM 28.1310 -104.4150 160° South 358 412 39,000  Level FlightAware
01:13PM 28.0320 -104.3750 160° South 359 413 39,000  Level FlightAware
01:13PM 27.9820 -104.3550 161° South 359 413 39,000  Level FlightAware
01:14PM 27.8960 -104.3210 161° South 359 413 39,000  Level FlightAware
01:15PM 27.8430 -104.2990 160° South 359 413 39,000  Level FlightAware
01:15PM 27.7730 -104.2710 161° South 360 414 39,000  Level FlightAware
01:16PM 27.7020 -104.2430 161° South 362 417 39,000  Level FlightAware
01:17PM 27.6400 -104.2180 160° South 362 417 39,000  Level FlightAware
01:18PM 27.5690 -104.1900 161° South 363 418 39,000  Level FlightAware
01:18PM 27.5040 -104.1640 160° South 363 418 39,000  Level FlightAware
01:19PM 27.4360 -104.1370 161° South 363 418 39,000  Level FlightAware
01:19PM 27.3870 -104.1170 160° South 363 418 39,000  Level FlightAware
01:20PM 27.3150 -104.0890 161° South 362 417 39,000  Level FlightAware
01:21PM 27.2510 -104.0630 160° South 362 417 39,000  Level FlightAware
01:22PM 27.1980 -104.0410 160° South 362 417 39,000  Level FlightAware
01:22PM 27.1310 -104.0140 160° South 362 417 39,000  Level FlightAware
01:23PM 27.0770 -103.9920 160° South 362 417 39,000  Level FlightAware
01:24PM 27.0240 -103.9700 160° South 362 417 39,000  Level FlightAware
01:24PM 26.9700 -103.9480 160° South 362 417 39,000  Level FlightAware
01:25PM 26.9170 -103.9260 160° South 362 417 39,000  Level FlightAware
01:26PM 26.8500 -103.8990 160° South 362 417 39,000  Level FlightAware
01:27PM 26.7960 -103.8770 160° South 362 417 39,000  Level FlightAware
01:27PM 26.7430 -103.8550 160° South 362 417 39,000  Level FlightAware
01:28PM 26.6890 -103.8330 160° South 362 417 39,000  Level FlightAware
01:29PM 26.6360 -103.8120 160° South 362 417 39,000  Level FlightAware
01:29PM 26.5820 -103.7900 160° South 362 417 39,000  Level FlightAware
01:30PM 26.5150 -103.7630 160° South 362 417 39,000  Level FlightAware
01:33PM 26.3255 -103.6920 161° South  Level Estimated
01:34PM 26.2454 -103.6620 161° South  Level Estimated
01:35PM 26.1653 -103.6321 161° South  Level Estimated
01:36PM 26.0852 -103.6023 161° South  Level Estimated
01:37PM 26.0051 -103.5724 162° South  Level Estimated
01:38PM 25.9250 -103.5427 162° South  Level Estimated
01:39PM 25.8449 -103.5129 162° South  Level Estimated
01:40PM 25.7648 -103.4832 162° South  Level Estimated
01:41PM 25.6846 -103.4536 162° South  Level Estimated
01:42PM 25.6045 -103.4240 162° South  Level Estimated
01:43PM 25.5683 -103.4106 162° South  Level Estimated
01:44PM 25.5683 -103.4106 234° Southwest  Level Estimated
01:45PM 25.5683 -103.4106 234° Southwest  Level Estimated
01:46PM 25.5683 -103.4106 234° Southwest  Level Estimated
01:47PM 25.5683 -103.4106 234° Southwest  Level Estimated
01:48PM 25.5683 -103.4106 234° Southwest  Level Estimated
01:49PM 25.5683 -103.4106 234° Southwest  Level Estimated
01:50PM 25.5683 -103.4106 234° Southwest  Level Estimated
01:51PM 25.5683 -103.4106 234° Southwest  Level Estimated
01:52PM 25.5683 -103.4106 234° Southwest  Level Estimated
01:53PM 25.5683 -103.4106 234° Southwest  Level Estimated
01:54PM 25.5683 -103.4106 234° Southwest  Level Estimated
01:55PM 25.5683 -103.4106 234° Southwest  Level Estimated
01:56PM 25.5683 -103.4106 234° Southwest  Level Estimated
01:57PM 25.5683 -103.4106 234° Southwest  Level Estimated
01:58PM 25.5683 -103.4106 234° Southwest  Level Estimated
01:59PM 25.5683 -103.4106 234° Southwest  Level Estimated
02:00PM 25.5683 -103.4106 234° Southwest  Level Estimated
02:01PM 25.5683 -103.4106 234° Southwest  Level Estimated
02:02PM 25.5683 -103.4106 234° Southwest  Level Estimated
02:03PM 25.5683 -103.4106 234° Southwest  Level Estimated
02:04PM 25.5683 -103.4106 234° Southwest  Level Estimated
02:05PM 25.5683 -103.4106 234° Southwest  Level Estimated